createdAt,value
2022-08-18T00:01:14.806Z,24.37
2022-08-18T00:03:56.431Z,24.35
2022-08-18T00:06:30.015Z,24.09
2022-08-18T00:08:58.533Z,23.94
2022-08-18T00:11:25.325Z,24.02
2022-08-18T00:13:52.078Z,23.99
2022-08-18T00:16:18.568Z,23.68
2022-08-18T00:18:45.116Z,23.16
2022-08-18T00:21:11.674Z,23.09
2022-08-18T00:23:38.724Z,23.64
2022-08-18T00:26:05.498Z,23.80
2022-08-18T00:28:32.011Z,23.78
2022-08-18T00:30:58.495Z,23.40
2022-08-18T00:33:25.517Z,23.82
2022-08-18T00:35:52.111Z,23.54
2022-08-18T00:38:24.846Z,23.36
2022-08-18T00:40:55.360Z,23.54
2022-08-18T00:43:29.804Z,23.76
2022-08-18T00:45:56.463Z,23.89
2022-08-18T00:48:24.282Z,23.81
2022-08-18T00:51:03.382Z,23.66
2022-08-18T00:53:35.981Z,23.47
2022-08-18T00:56:08.741Z,23.59
2022-08-18T00:58:42.473Z,23.69
2022-08-18T01:01:09.959Z,23.85
2022-08-18T01:03:40.010Z,23.62
2022-08-18T01:06:12.485Z,23.54
2022-08-18T01:08:41.062Z,23.41
2022-08-18T01:11:10.468Z,23.40
2022-08-18T01:13:38.723Z,23.45
2022-08-18T01:16:25.719Z,23.69
2022-08-18T01:19:11.252Z,23.79
2022-08-18T01:21:50.878Z,23.77
2022-08-18T01:24:22.391Z,23.72
2022-08-18T01:26:51.873Z,23.23
2022-08-18T01:29:19.617Z,23.30
2022-08-18T01:31:56.088Z,23.43
2022-08-18T01:34:25.475Z,23.43
2022-08-18T01:36:52.509Z,23.47
2022-08-18T01:40:59.788Z,23.43
2022-08-18T01:42:06.987Z,23.32
2022-08-18T01:44:34.005Z,23.39
2022-08-18T01:47:00.695Z,23.27
2022-08-18T01:49:28.789Z,23.32
2022-08-18T01:51:55.721Z,23.30
2022-08-18T01:54:22.348Z,23.11
2022-08-18T01:56:49.411Z,23.21
2022-08-18T01:59:16.155Z,23.10
2022-08-18T02:01:50.415Z,23.35
2022-08-18T02:04:34.927Z,23.36
2022-08-18T02:07:09.238Z,23.22
2022-08-18T02:09:37.904Z,23.36
2022-08-18T02:12:05.897Z,23.26
2022-08-18T02:14:33.113Z,23.07
2022-08-18T02:17:02.687Z,23.20
2022-08-18T02:19:38.598Z,23.30
2022-08-18T02:22:06.547Z,23.25
2022-08-18T02:24:33.389Z,23.26
2022-08-18T02:26:59.904Z,23.31
2022-08-18T02:29:26.589Z,23.39
2022-08-18T02:31:53.191Z,23.08
2022-08-18T02:34:19.727Z,22.93
2022-08-18T02:36:46.376Z,22.84
2022-08-18T02:39:13.261Z,22.81
2022-08-18T02:41:40.068Z,22.71
2022-08-18T02:44:08.499Z,22.85
2022-08-18T02:46:35.440Z,22.96
2022-08-18T02:49:02.614Z,23.10
2022-08-18T02:51:29.122Z,23.07
2022-08-18T02:53:58.997Z,22.62
2022-08-18T02:56:39.981Z,22.79
2022-08-18T02:59:11.125Z,22.89
2022-08-18T03:01:40.947Z,22.95
2022-08-18T03:04:09.720Z,22.76
2022-08-18T03:06:38.004Z,22.74
2022-08-18T03:09:06.247Z,22.83
2022-08-18T03:11:32.815Z,22.92
2022-08-18T03:14:00.468Z,22.85
2022-08-18T03:16:27.686Z,22.80
2022-08-18T03:18:54.429Z,22.56
2022-08-18T03:21:24.943Z,22.54
2022-08-18T03:24:01.207Z,22.84
2022-08-18T03:26:30.321Z,22.51
2022-08-18T03:28:58.383Z,23.16
2022-08-18T03:31:27.955Z,22.55
2022-08-18T03:33:57.165Z,22.84
2022-08-18T03:36:29.465Z,22.99
2022-08-18T03:38:56.951Z,23.14
2022-08-18T03:41:57.495Z,23.25
2022-08-18T03:44:14.826Z,22.93
2022-08-18T03:46:43.044Z,23.09
2022-08-18T03:49:09.742Z,22.89
2022-08-18T03:51:37.016Z,22.75
2022-08-18T03:54:04.669Z,23.04
2022-08-18T03:56:38.231Z,23.01
2022-08-18T03:59:15.409Z,22.78
2022-08-18T04:01:42.735Z,22.95
2022-08-18T04:04:11.999Z,22.96
2022-08-18T04:06:51.235Z,23.13
2022-08-18T04:09:22.386Z,23.03
2022-08-18T04:11:49.622Z,23.16
2022-08-18T04:14:21.661Z,23.55
2022-08-18T04:16:49.193Z,23.74
2022-08-18T04:19:22.737Z,23.65
2022-08-18T04:21:54.872Z,23.76
2022-08-18T04:24:21.457Z,23.38
2022-08-18T04:26:49.041Z,23.23
2022-08-18T04:29:18.155Z,23.55
2022-08-18T04:31:45.393Z,23.59
2022-08-18T04:34:12.449Z,23.77
2022-08-18T04:36:39.833Z,23.67
2022-08-18T04:39:07.866Z,23.39
2022-08-18T04:41:35.415Z,23.61
2022-08-18T04:44:04.479Z,23.03
2022-08-18T04:46:36.127Z,23.46
2022-08-18T04:49:03.805Z,22.88
2022-08-18T04:52:34.400Z,22.75
2022-08-18T04:54:17.422Z,21.96
2022-08-18T04:56:43.910Z,22.10
2022-08-18T04:59:12.705Z,22.32
2022-08-18T05:01:45.710Z,22.18
2022-08-18T05:04:14.247Z,22.41
2022-08-18T05:06:43.364Z,21.89
2022-08-18T05:09:11.499Z,22.17
2022-08-18T05:11:38.962Z,21.44
2022-08-18T05:14:07.629Z,22.13
2022-08-18T05:16:36.552Z,21.72
2022-08-18T05:19:22.229Z,22.09
2022-08-18T05:21:59.525Z,22.09
2022-08-18T05:24:33.535Z,22.40
2022-08-18T05:27:03.598Z,22.18
2022-08-18T05:29:37.754Z,22.13
2022-08-18T05:32:12.062Z,22.24
2022-08-18T05:35:00.557Z,22.97
2022-08-18T05:37:35.568Z,23.16
2022-08-18T05:40:10.360Z,23.06
2022-08-18T05:42:39.445Z,23.59
2022-08-18T05:45:12.356Z,23.70
2022-08-18T05:47:39.219Z,23.09
2022-08-18T05:50:09.440Z,23.32
2022-08-18T05:52:57.437Z,23.23
2022-08-18T05:55:50.172Z,23.40
2022-08-18T05:58:44.571Z,23.14
2022-08-18T06:01:18.867Z,23.65
2022-08-18T06:03:49.886Z,23.00
2022-08-18T06:06:24.245Z,22.62
2022-08-18T06:09:14.084Z,22.48
2022-08-18T06:11:41.504Z,22.83
2022-08-18T06:14:08.220Z,23.20
2022-08-18T06:16:49.948Z,23.04
2022-08-18T06:19:31.687Z,23.24
2022-08-18T06:22:10.328Z,22.46
2022-08-18T06:25:01.673Z,22.12
2022-08-18T06:27:47.558Z,22.05
2022-08-18T06:30:19.945Z,22.08
2022-08-18T06:33:08.767Z,22.72
2022-08-18T06:35:46.520Z,22.37
2022-08-18T06:38:40.535Z,22.79
2022-08-18T06:41:42.013Z,22.67
2022-08-18T06:44:03.527Z,23.00
2022-08-18T06:46:44.020Z,21.70
2022-08-18T06:49:29.429Z,21.77
2022-08-18T06:51:55.963Z,22.42
2022-08-18T06:54:22.600Z,22.61
2022-08-18T06:56:51.723Z,22.28
2022-08-18T06:59:18.503Z,22.58
2022-08-18T07:01:47.580Z,22.78
2022-08-18T07:04:38.271Z,23.00
2022-08-18T07:07:20.850Z,23.09
2022-08-18T07:09:57.716Z,22.65
2022-08-18T07:12:32.571Z,23.08
2022-08-18T07:15:01.654Z,23.32
2022-08-18T07:17:43.507Z,22.41
2022-08-18T07:20:21.476Z,22.59
2022-08-18T07:23:08.256Z,22.57
2022-08-18T07:25:41.300Z,22.80
2022-08-18T07:28:07.963Z,22.90
2022-08-18T07:30:36.877Z,22.87
2022-08-18T07:33:19.830Z,22.84
2022-08-18T07:35:51.736Z,22.97
2022-08-18T07:38:43.176Z,22.65
2022-08-18T07:41:32.197Z,23.49
2022-08-18T07:43:59.414Z,23.72
2022-08-18T07:46:35.576Z,23.63
2022-08-18T07:49:05.419Z,23.95
2022-08-18T07:51:56.976Z,23.64
2022-08-18T07:54:49.304Z,23.52
2022-08-18T07:57:21.984Z,23.98
2022-08-18T08:00:01.747Z,24.44
2022-08-18T08:02:50.131Z,23.85
2022-08-18T08:05:33.033Z,24.88
2022-08-18T08:08:30.839Z,24.76
2022-08-18T08:11:07.225Z,24.76
2022-08-18T08:13:56.152Z,24.74
2022-08-18T08:16:36.696Z,25.06
2022-08-18T08:19:59.586Z,24.39
2022-08-18T08:22:37.445Z,24.36
2022-08-18T08:25:28.643Z,24.82
2022-08-18T08:28:29.498Z,24.33
2022-08-18T08:31:33.010Z,24.75
2022-08-18T08:34:06.299Z,24.85
2022-08-18T08:36:39.802Z,25.07
2022-08-18T08:39:15.527Z,25.07
2022-08-18T08:41:53.343Z,25.05
2022-08-18T08:45:00.051Z,24.55
2022-08-18T08:47:29.889Z,24.33
2022-08-18T08:50:08.523Z,24.98
2022-08-18T08:52:42.370Z,25.20
2022-08-18T08:55:18.899Z,25.19
2022-08-18T08:58:08.565Z,25.03
2022-08-18T09:00:35.960Z,25.01
2022-08-18T09:03:30.355Z,24.93
2022-08-18T09:06:20.085Z,25.11
2022-08-18T09:08:46.556Z,25.24
2022-08-18T09:11:21.109Z,25.79
2022-08-18T09:14:25.008Z,24.79
2022-08-18T09:16:59.361Z,24.19
2022-08-18T09:19:31.949Z,24.53
2022-08-18T09:21:58.632Z,24.43
2022-08-18T09:24:41.791Z,24.84
2022-08-18T09:27:48.646Z,24.19
2022-08-18T09:31:08.654Z,25.01
2022-08-18T09:33:40.377Z,25.32
2022-08-18T09:36:25.613Z,26.06
2022-08-18T09:39:18.500Z,25.94
2022-08-18T09:41:59.517Z,24.85
2022-08-18T09:47:30.423Z,25.32
2022-08-18T09:50:01.934Z,25.82
2022-08-18T09:50:37.149Z,24.97
2022-08-18T09:52:33.460Z,26.50
2022-08-18T09:55:26.856Z,26.73
2022-08-18T09:58:22.958Z,27.27
2022-08-18T10:01:19.715Z,27.26
2022-08-18T10:04:14.370Z,26.53
2022-08-18T10:06:42.972Z,26.85
2022-08-18T10:09:44.067Z,26.57
2022-08-18T10:12:23.658Z,26.68
2022-08-18T10:15:12.552Z,27.15
2022-08-18T10:17:54.485Z,26.66
2022-08-18T10:20:42.606Z,26.18
2022-08-18T10:23:09.642Z,26.50
2022-08-18T10:25:41.072Z,26.46
2022-08-18T10:28:50.001Z,27.79
2022-08-18T10:31:18.578Z,27.28
2022-08-18T10:34:16.061Z,26.86
2022-08-18T10:36:44.057Z,27.74
2022-08-18T10:39:14.072Z,27.64
2022-08-18T10:42:07.213Z,28.16
2022-08-18T10:44:45.863Z,27.60
2022-08-18T10:47:25.131Z,27.60
2022-08-18T10:50:05.087Z,28.14
2022-08-18T10:52:54.444Z,27.59
2022-08-18T10:55:49.116Z,27.66
2022-08-18T10:58:35.395Z,27.63
2022-08-18T11:01:14.902Z,26.63
2022-08-18T11:04:32.849Z,27.11
2022-08-18T11:07:30.671Z,27.16
2022-08-18T11:10:27.781Z,27.08
2022-08-18T11:13:09.824Z,27.84
2022-08-18T11:15:52.336Z,28.40
2022-08-18T11:18:42.796Z,28.91
2022-08-18T11:21:42.644Z,29.49
2022-08-18T11:24:16.106Z,29.96
2022-08-18T11:26:52.555Z,30.40
2022-08-18T11:29:40.897Z,30.17
2022-08-18T11:35:24.509Z,31.52
2022-08-18T11:37:56.285Z,30.66
2022-08-18T11:41:08.596Z,31.35
2022-08-18T11:43:40.936Z,31.88
2022-08-18T11:46:39.021Z,32.80
2022-08-18T11:49:33.597Z,32.88
2022-08-18T11:55:23.888Z,35.38
2022-08-18T11:57:58.668Z,38.29
2022-08-18T12:01:02.907Z,38.41
2022-08-18T12:03:44.799Z,37.28
2022-08-18T12:06:19.293Z,33.29
2022-08-18T12:08:57.277Z,33.91
2022-08-18T12:11:52.557Z,32.94
2022-08-18T12:14:30.612Z,32.92
2022-08-18T12:17:00.093Z,32.73
2022-08-18T12:19:30.651Z,32.78
2022-08-18T12:22:00.266Z,32.44
2022-08-18T12:27:22.509Z,32.58
2022-08-18T12:29:53.581Z,32.30
2022-08-18T12:32:55.991Z,32.23
2022-08-18T12:35:11.638Z,32.30
2022-08-18T12:40:29.438Z,31.98
2022-08-18T12:42:56.864Z,31.46
2022-08-18T12:45:26.075Z,30.96
2022-08-18T12:47:54.362Z,30.15
2022-08-18T12:50:20.924Z,29.95
2022-08-18T12:52:58.687Z,30.82
2022-08-18T12:55:43.458Z,30.86
2022-08-18T12:58:11.284Z,30.62
2022-08-18T13:00:39.460Z,30.42
2022-08-18T13:03:07.293Z,30.47
2022-08-18T13:05:37.329Z,30.77
2022-08-18T13:08:05.579Z,30.52
2022-08-18T13:10:42.953Z,29.46
2022-08-18T13:13:14.912Z,29.62
2022-08-18T13:15:55.264Z,29.72
2022-08-18T13:18:28.708Z,30.03
2022-08-18T13:20:58.850Z,29.77
2022-08-18T13:23:27.115Z,29.46
2022-08-18T13:26:01.283Z,29.72
2022-08-18T13:28:30.911Z,29.61
2022-08-18T13:31:05.907Z,29.05
2022-08-18T13:33:35.329Z,29.74
2022-08-18T13:36:20.462Z,30.00
2022-08-18T13:38:52.243Z,30.63
2022-08-18T13:41:23.323Z,30.82
2022-08-18T13:43:51.604Z,30.86
2022-08-18T13:46:24.320Z,30.24
2022-08-18T13:49:03.292Z,29.51
2022-08-18T13:51:30.271Z,29.68
2022-08-18T13:54:17.732Z,29.20
2022-08-18T13:56:51.812Z,30.12
2022-08-18T13:59:21.549Z,30.93
2022-08-18T14:01:51.954Z,31.28
2022-08-18T14:04:20.445Z,31.34
2022-08-18T14:06:56.277Z,32.46
2022-08-18T14:09:27.941Z,31.26
2022-08-18T14:12:28.187Z,32.11
2022-08-18T14:14:57.769Z,31.62
2022-08-18T14:17:25.434Z,31.81
2022-08-18T14:20:15.522Z,31.67
2022-08-18T14:23:12.044Z,31.53
2022-08-18T14:25:57.628Z,30.89
2022-08-18T14:28:27.246Z,30.38
2022-08-18T14:30:54.395Z,29.91
2022-08-18T14:33:34.061Z,29.85
2022-08-18T14:36:10.076Z,30.33
2022-08-18T14:38:38.340Z,30.17
2022-08-18T14:41:07.141Z,29.73
2022-08-18T14:44:11.344Z,29.62
2022-08-18T14:46:23.425Z,29.62
2022-08-18T14:48:57.094Z,29.61
2022-08-18T14:51:27.021Z,29.93
2022-08-18T14:53:54.455Z,30.01
2022-08-18T14:56:22.461Z,30.36
2022-08-18T14:58:51.082Z,30.29
2022-08-18T15:01:18.290Z,30.65
2022-08-18T15:03:44.927Z,31.21
2022-08-18T15:06:17.008Z,31.44
2022-08-18T15:08:49.766Z,31.73
2022-08-18T15:11:17.149Z,31.88
2022-08-18T15:13:45.283Z,31.76
2022-08-18T15:16:13.799Z,31.37
2022-08-18T15:18:42.134Z,30.82
2022-08-18T15:21:35.530Z,29.84
2022-08-18T15:24:23.644Z,28.78
2022-08-18T15:26:56.721Z,28.96
2022-08-18T15:29:30.368Z,29.31
2022-08-18T15:32:05.156Z,29.97
2022-08-18T15:34:33.083Z,28.26
2022-08-18T15:37:14.081Z,28.72
2022-08-18T15:39:41.507Z,29.53
2022-08-18T15:42:12.952Z,29.83
2022-08-18T15:44:40.221Z,30.33
2022-08-18T15:47:11.399Z,30.18
2022-08-18T15:49:38.572Z,30.78
2022-08-18T15:52:05.135Z,30.56
2022-08-18T15:54:31.681Z,30.66
2022-08-18T15:56:58.834Z,30.78
2022-08-18T15:59:34.284Z,30.96
2022-08-18T16:02:11.455Z,31.09
2022-08-18T16:04:40.993Z,30.59
2022-08-18T16:07:07.837Z,30.62
2022-08-18T16:09:36.869Z,30.65
2022-08-18T16:12:04.098Z,30.81
2022-08-18T16:14:31.531Z,30.93
2022-08-18T16:16:58.017Z,31.11
2022-08-18T16:19:25.695Z,31.15
2022-08-18T16:21:55.403Z,31.34
2022-08-18T16:24:23.585Z,31.40
2022-08-18T16:26:51.909Z,31.40
2022-08-18T16:29:19.341Z,31.30
2022-08-18T16:31:46.453Z,30.71
2022-08-18T16:34:13.000Z,31.09
2022-08-18T16:36:39.560Z,30.33
2022-08-18T16:39:06.421Z,30.45
2022-08-18T16:41:33.527Z,30.52
2022-08-18T16:44:00.567Z,30.31
2022-08-18T16:46:28.001Z,30.30
2022-08-18T16:48:56.271Z,29.92
2022-08-18T16:51:25.343Z,29.82
2022-08-18T16:53:53.436Z,29.21
2022-08-18T16:56:26.596Z,29.39
2022-08-18T16:59:12.225Z,29.41
2022-08-18T17:01:57.661Z,29.59
2022-08-18T17:04:28.698Z,29.48
2022-08-18T17:06:56.333Z,29.64
2022-08-18T17:09:23.217Z,29.62
2022-08-18T17:11:51.947Z,29.60
2022-08-18T17:14:24.522Z,29.55
2022-08-18T17:16:54.305Z,29.32
2022-08-18T17:19:23.189Z,29.59
2022-08-18T17:21:49.706Z,29.57
2022-08-18T17:24:28.544Z,29.30
2022-08-18T17:27:26.931Z,29.18
2022-08-18T17:30:07.600Z,29.33
2022-08-18T17:32:51.859Z,29.53
2022-08-18T17:35:35.561Z,28.72
2022-08-18T17:38:22.587Z,29.01
2022-08-18T17:40:52.941Z,28.89
2022-08-18T17:43:25.057Z,28.75
2022-08-18T17:46:01.590Z,28.62
2022-08-18T17:48:32.330Z,28.83
2022-08-18T17:51:22.355Z,28.92
2022-08-18T17:53:49.282Z,28.79
2022-08-18T17:56:21.402Z,28.76
2022-08-18T17:58:56.386Z,28.38
2022-08-18T18:01:25.832Z,28.23
2022-08-18T18:03:53.707Z,28.04
2022-08-18T18:06:35.146Z,28.23
2022-08-18T18:09:07.222Z,28.09
2022-08-18T18:11:43.519Z,27.80
2022-08-18T18:14:47.406Z,27.65
2022-08-18T18:17:20.073Z,27.32
2022-08-18T18:19:51.013Z,27.73
2022-08-18T18:22:24.206Z,27.68
2022-08-18T18:24:57.364Z,27.79
2022-08-18T18:27:38.342Z,28.09
2022-08-18T18:30:08.387Z,28.09
2022-08-18T18:33:00.248Z,28.28
2022-08-18T18:35:27.858Z,28.12
2022-08-18T18:37:57.116Z,28.04
2022-08-18T18:40:29.636Z,28.01
2022-08-18T18:42:58.035Z,27.91
2022-08-18T18:45:29.013Z,27.84
2022-08-18T18:48:06.370Z,27.84
2022-08-18T18:50:53.087Z,27.71
2022-08-18T18:53:41.548Z,27.52
2022-08-18T18:56:34.502Z,27.47
2022-08-18T18:59:40.724Z,27.32
2022-08-18T19:02:57.709Z,27.38
2022-08-18T19:05:39.225Z,27.18
2022-08-18T19:08:07.192Z,26.86
2022-08-18T19:10:44.070Z,26.87
2022-08-18T19:13:32.263Z,26.86
2022-08-18T19:16:24.281Z,26.93
2022-08-18T19:19:37.325Z,27.02
2022-08-18T19:22:04.022Z,27.03
2022-08-18T19:24:35.216Z,27.06
2022-08-18T19:27:04.859Z,26.95
2022-08-18T19:29:38.598Z,26.92
2022-08-18T19:32:15.928Z,26.92
2022-08-18T19:34:51.324Z,26.86
2022-08-18T19:37:27.555Z,26.87
2022-08-18T19:40:30.428Z,26.66
2022-08-18T19:43:26.514Z,26.75
2022-08-18T19:46:01.634Z,26.58
2022-08-18T19:48:43.462Z,26.48
2022-08-18T19:51:14.076Z,26.59
2022-08-18T19:53:55.827Z,26.52
2022-08-18T19:56:54.188Z,26.60
2022-08-18T19:59:50.700Z,26.65
2022-08-18T20:02:25.811Z,26.57
2022-08-18T20:04:57.293Z,26.59
2022-08-18T20:07:29.678Z,26.61
2022-08-18T20:10:01.760Z,26.30
2022-08-18T20:12:48.141Z,26.59
2022-08-18T20:15:18.534Z,26.54
2022-08-18T20:17:57.251Z,26.32
2022-08-18T20:20:44.020Z,26.47
2022-08-18T20:23:34.832Z,26.11
2022-08-18T20:26:01.506Z,26.26
2022-08-18T20:28:37.280Z,26.31
2022-08-18T20:31:06.750Z,26.15
2022-08-18T20:33:43.307Z,25.92
2022-08-18T20:36:33.219Z,25.59
2022-08-18T20:39:00.423Z,25.52
2022-08-18T20:41:40.952Z,25.63
2022-08-18T20:44:29.423Z,25.56
2022-08-18T20:47:23.992Z,25.49
2022-08-18T20:50:15.387Z,25.23
2022-08-18T20:53:07.748Z,25.25
2022-08-18T20:55:56.571Z,25.04
2022-08-18T20:58:27.346Z,25.02
2022-08-18T21:00:57.367Z,24.52
2022-08-18T21:03:38.914Z,24.37
2022-08-18T21:06:06.048Z,24.14
2022-08-18T21:08:35.850Z,24.54
2022-08-18T21:11:19.035Z,24.50
2022-08-18T21:13:45.559Z,24.08
2022-08-18T21:16:40.261Z,24.23
2022-08-18T21:19:25.414Z,24.17
2022-08-18T21:22:02.606Z,24.35
2022-08-18T21:24:35.784Z,24.16
2022-08-18T21:27:35.304Z,24.16
2022-08-18T21:30:15.388Z,24.30
2022-08-18T21:32:44.549Z,24.46
2022-08-18T21:35:26.625Z,24.22
2022-08-18T21:38:01.110Z,24.21
2022-08-18T21:40:41.175Z,23.99
2022-08-18T21:43:09.407Z,24.32
2022-08-18T21:45:53.026Z,24.24
2022-08-18T21:48:22.466Z,24.70
2022-08-18T21:50:51.573Z,24.56
2022-08-18T21:53:29.878Z,23.92
2022-08-18T21:55:57.467Z,24.06
2022-08-18T21:58:40.181Z,23.98
2022-08-18T22:01:10.743Z,24.08
2022-08-18T22:03:48.882Z,24.46
2022-08-18T22:06:24.149Z,24.58
2022-08-18T22:08:57.719Z,24.64
2022-08-18T22:12:01.380Z,24.61
2022-08-18T22:14:54.545Z,24.21
2022-08-18T22:17:34.928Z,24.27
2022-08-18T22:20:35.599Z,24.35
2022-08-18T22:23:23.735Z,24.37
2022-08-18T22:25:50.978Z,24.21
2022-08-18T22:28:24.300Z,24.05
2022-08-18T22:30:53.945Z,24.05
2022-08-18T22:33:20.715Z,24.06
2022-08-18T22:35:56.416Z,24.34
2022-08-18T22:38:25.061Z,24.50
2022-08-18T22:40:52.207Z,24.46
2022-08-18T22:43:18.747Z,24.28
2022-08-18T22:45:45.556Z,23.77
2022-08-18T22:48:12.093Z,23.65
2022-08-18T22:50:38.631Z,23.31
2022-08-18T22:53:05.497Z,23.32
2022-08-18T22:55:32.148Z,23.53
2022-08-18T22:57:58.699Z,23.67
2022-08-18T23:00:27.476Z,23.39
2022-08-18T23:02:55.198Z,23.33
2022-08-18T23:05:22.284Z,23.30
2022-08-18T23:07:49.809Z,23.39
2022-08-18T23:10:16.681Z,22.93
2022-08-18T23:12:44.634Z,22.75
2022-08-18T23:15:11.744Z,22.90
2022-08-18T23:17:40.656Z,22.90
2022-08-18T23:20:12.009Z,22.61
2022-08-18T23:22:42.255Z,23.02
2022-08-18T23:25:09.523Z,22.68
2022-08-18T23:27:36.660Z,22.43
2022-08-18T23:30:05.007Z,22.90
2022-08-18T23:32:31.960Z,22.87
2022-08-18T23:34:59.372Z,22.61
2022-08-18T23:37:25.954Z,22.58
2022-08-18T23:39:52.550Z,23.27
2022-08-18T23:42:19.155Z,23.34
2022-08-18T23:44:49.586Z,22.60
2022-08-18T23:47:18.507Z,22.99
2022-08-18T23:49:45.108Z,23.08
2022-08-18T23:52:11.606Z,22.99
2022-08-18T23:54:39.062Z,22.98
2022-08-18T23:57:05.804Z,22.97
2022-08-18T23:59:32.424Z,22.89
